DAL10L LPPR-KJFK
Flight info
| Callsign | DAL10L |
|---|---|
| Flight time | N/A |
| Altitude | 36000 |
| Route | UBANI2W UBANI DCT ARMED/M081F360 DCT 43N020W 44N030W 44N040W 45N050W DCT RAFIN/N0463F360 N80A WHALE DCT PLYMM PARCH3 |
| Aircraft | A333/H-SDE3GHIJ2J3J5M1RVWXY/LB2D1 |
Departure
| Time | 2026-05-07 23:13 |
|---|---|
| Airport | Francisco de Sá Carneiro Airport (LPPR) |
Arrival
| Time | N/A |
|---|---|
| Airport | John F. Kennedy International Airport (KJFK) |
| Time | Latitude | Longitude | Altitude | Speed | Heading |
|---|---|---|---|---|---|
| 2026-05-07 22:45 | 41.23438 | -8.67269 | 246 ft | 0 kts | 59° |
| 2026-05-07 23:02 | 41.23433 | -8.67281 | 245 ft | 2 kts | 59° |
| 2026-05-07 23:02 | 41.23426 | -8.67297 | 244 ft | 2 kts | 58° |
| 2026-05-07 23:02 | 41.23418 | -8.67314 | 244 ft | 2 kts | 58° |
| 2026-05-07 23:03 | 41.23414 | -8.67323 | 243 ft | 2 kts | 59° |
| 2026-05-07 23:03 | 41.23409 | -8.67341 | 243 ft | 2 kts | 100° |
| 2026-05-07 23:03 | 41.23415 | -8.67359 | 242 ft | 2 kts | 136° |
| 2026-05-07 23:03 | 41.23427 | -8.67369 | 242 ft | 2 kts | 172° |
| 2026-05-07 23:04 | 41.23440 | -8.67368 | 242 ft | 2 kts | 204° |
| 2026-05-07 23:04 | 41.23447 | -8.67363 | 242 ft | 1 kts | 215° |
| 2026-05-07 23:04 | 41.23449 | -8.67362 | 242 ft | 0 kts | 214° |
| 2026-05-07 23:06 | 41.23449 | -8.67363 | 242 ft | 0 kts | 213° |
| 2026-05-07 23:09 | 41.23425 | -8.67368 | 242 ft | 9 kts | 177° |
| 2026-05-07 23:09 | 41.23340 | -8.67438 | 239 ft | 22 kts | 240° |
| 2026-05-07 23:09 | 41.23317 | -8.67545 | 234 ft | 7 kts | 256° |
| 2026-05-07 23:09 | 41.23281 | -8.67691 | 229 ft | 21 kts | 259° |
| 2026-05-07 23:10 | 41.23404 | -8.67765 | 226 ft | 17 kts | 345° |
| 2026-05-07 23:10 | 41.23493 | -8.67783 | 224 ft | 0 kts | 347° |
| 2026-05-07 23:10 | 41.23494 | -8.67783 | 224 ft | 0 kts | 347° |
| 2026-05-07 23:11 | 41.23503 | -8.67786 | 224 ft | 10 kts | 347° |
| 2026-05-07 23:12 | 41.23805 | -8.67863 | 217 ft | 82 kts | 349° |
| 2026-05-07 23:12 | 41.24587 | -8.68071 | 201 ft | 140 kts | 349° |
| 2026-05-07 23:12 | 41.25709 | -8.68347 | 251 ft | 180 kts | 349° |
| 2026-05-07 23:12 | 41.26973 | -8.68720 | 545 ft | 196 kts | 347° |
| 2026-05-07 23:13 | 41.28358 | -8.69108 | 844 ft | 205 kts | 349° |
| 2026-05-07 23:13 | 41.29774 | -8.69472 | 1124 ft | 210 kts | 349° |
| 2026-05-07 23:13 | 41.31190 | -8.69836 | 1705 ft | 205 kts | 349° |
| 2026-05-07 23:13 | 41.32586 | -8.70199 | 2105 ft | 214 kts | 349° |
| 2026-05-07 23:14 | 41.34104 | -8.70593 | 2449 ft | 230 kts | 349° |
| 2026-05-07 23:14 | 41.35728 | -8.71014 | 2821 ft | 246 kts | 349° |
| 2026-05-07 23:14 | 41.37418 | -8.71451 | 3359 ft | 254 kts | 349° |
| 2026-05-07 23:14 | 41.39164 | -8.71904 | 3992 ft | 258 kts | 349° |
| 2026-05-07 23:15 | 41.40953 | -8.72432 | 4555 ft | 265 kts | 339° |
| 2026-05-07 23:15 | 41.42459 | -8.73763 | 5146 ft | 266 kts | 310° |
| 2026-05-07 23:15 | 41.43357 | -8.75906 | 5731 ft | 266 kts | 283° |
| 2026-05-07 23:15 | 41.43888 | -8.78235 | 6371 ft | 268 kts | 285° |
| 2026-05-07 23:16 | 41.44494 | -8.80592 | 7002 ft | 272 kts | 285° |
| 2026-05-07 23:16 | 41.45112 | -8.82971 | 7597 ft | 276 kts | 285° |
| 2026-05-07 23:16 | 41.45744 | -8.85385 | 8216 ft | 278 kts | 285° |
| 2026-05-07 23:16 | 41.46379 | -8.87806 | 8811 ft | 282 kts | 285° |
| 2026-05-07 23:17 | 41.47029 | -8.90284 | 9401 ft | 285 kts | 285° |
| 2026-05-07 23:17 | 41.47690 | -8.92810 | 9962 ft | 290 kts | 285° |
| 2026-05-07 23:17 | 41.48361 | -8.95381 | 9966 ft | 296 kts | 285° |
| 2026-05-07 23:17 | 41.49027 | -8.97924 | 9970 ft | 290 kts | 285° |
| 2026-05-07 23:18 | 41.49694 | -9.00480 | 10000 ft | 290 kts | 285° |
| 2026-05-07 23:18 | 41.50352 | -9.03006 | 9977 ft | 290 kts | 285° |
| 2026-05-07 23:18 | 41.51011 | -9.05533 | 10028 ft | 294 kts | 285° |
| 2026-05-07 23:18 | 41.51682 | -9.08115 | 10642 ft | 294 kts | 285° |
| 2026-05-07 23:19 | 41.52344 | -9.10660 | 10704 ft | 294 kts | 285° |
| 2026-05-07 23:19 | 41.53038 | -9.13341 | 10842 ft | 318 kts | 285° |
| 2026-05-07 23:19 | 41.53794 | -9.16260 | 10814 ft | 347 kts | 286° |
| 2026-05-07 23:19 | 41.54588 | -9.19315 | 10777 ft | 347 kts | 286° |
| 2026-05-07 23:20 | 41.55368 | -9.22324 | 10798 ft | 344 kts | 286° |
| 2026-05-07 23:20 | 41.56109 | -9.25348 | 10776 ft | 340 kts | 283° |
| 2026-05-07 23:20 | 41.56771 | -9.28370 | 10781 ft | 338 kts | 283° |
| 2026-05-07 23:20 | 41.57432 | -9.31371 | 10801 ft | 339 kts | 283° |
| 2026-05-07 23:21 | 41.58092 | -9.34361 | 10776 ft | 339 kts | 283° |
| 2026-05-07 23:21 | 41.58762 | -9.37404 | 10787 ft | 338 kts | 283° |
| 2026-05-07 23:21 | 41.59421 | -9.40397 | 10830 ft | 344 kts | 283° |
| 2026-05-07 23:21 | 41.60102 | -9.43500 | 11165 ft | 357 kts | 283° |
| 2026-05-07 23:22 | 41.60750 | -9.46443 | 11782 ft | 358 kts | 283° |
| 2026-05-07 23:22 | 41.61467 | -9.49714 | 12421 ft | 361 kts | 283° |
| 2026-05-07 23:22 | 41.62170 | -9.52929 | 12925 ft | 366 kts | 283° |
| 2026-05-07 23:22 | 41.62882 | -9.56181 | 13501 ft | 368 kts | 283° |
| 2026-05-07 23:23 | 41.63601 | -9.59473 | 14042 ft | 371 kts | 283° |
| 2026-05-07 23:23 | 41.64319 | -9.62772 | 14482 ft | 376 kts | 283° |
| 2026-05-07 23:23 | 41.65051 | -9.66134 | 15023 ft | 377 kts | 282° |
| 2026-05-07 23:23 | 41.65774 | -9.69466 | 15492 ft | 380 kts | 282° |
| 2026-05-07 23:24 | 41.66515 | -9.72880 | 15923 ft | 384 kts | 282° |
| 2026-05-07 23:24 | 41.67268 | -9.76349 | 16385 ft | 387 kts | 282° |
| 2026-05-07 23:24 | 41.68008 | -9.79778 | 16782 ft | 391 kts | 282° |
| 2026-05-07 23:24 | 41.68763 | -9.83278 | 17185 ft | 394 kts | 282° |
| 2026-05-07 23:25 | 41.69521 | -9.86791 | 17625 ft | 396 kts | 282° |
| 2026-05-07 23:25 | 41.70278 | -9.90315 | 17974 ft | 399 kts | 282° |
| 2026-05-07 23:25 | 41.71044 | -9.93871 | 18337 ft | 403 kts | 282° |
| 2026-05-07 23:25 | 41.71818 | -9.97489 | 18751 ft | 404 kts | 282° |
| 2026-05-07 23:26 | 41.72592 | -10.01103 | 19122 ft | 406 kts | 282° |
| 2026-05-07 23:26 | 41.73368 | -10.04732 | 19493 ft | 408 kts | 282° |
| 2026-05-07 23:26 | 41.74144 | -10.08366 | 19851 ft | 410 kts | 282° |
| 2026-05-07 23:26 | 41.74923 | -10.12027 | 20193 ft | 412 kts | 282° |
| 2026-05-07 23:27 | 41.76493 | -10.19415 | 20844 ft | 416 kts | 282° |
| 2026-05-07 23:27 | 41.77279 | -10.23131 | 21127 ft | 419 kts | 282° |
| 2026-05-07 23:27 | 41.78073 | -10.26881 | 21465 ft | 420 kts | 282° |
| 2026-05-07 23:28 | 41.78872 | -10.30666 | 21784 ft | 421 kts | 282° |
| 2026-05-07 23:28 | 41.79667 | -10.34442 | 22009 ft | 425 kts | 282° |
| 2026-05-07 23:28 | 41.80459 | -10.38205 | 22353 ft | 424 kts | 282° |
| 2026-05-07 23:28 | 41.81262 | -10.42026 | 22631 ft | 426 kts | 282° |
| 2026-05-07 23:29 | 41.82061 | -10.45842 | 22841 ft | 429 kts | 282° |
| 2026-05-07 23:29 | 41.82869 | -10.49698 | 23133 ft | 430 kts | 282° |
| 2026-05-07 23:29 | 41.83671 | -10.53546 | 23398 ft | 431 kts | 282° |
| 2026-05-07 23:29 | 41.84477 | -10.57408 | 23619 ft | 434 kts | 282° |
| 2026-05-07 23:30 | 41.85292 | -10.61336 | 23850 ft | 436 kts | 282° |
| 2026-05-07 23:30 | 41.86096 | -10.65193 | 24241 ft | 433 kts | 281° |
| 2026-05-07 23:30 | 41.86909 | -10.69121 | 24432 ft | 436 kts | 281° |
| 2026-05-07 23:30 | 41.87710 | -10.72998 | 24668 ft | 437 kts | 281° |
| 2026-05-07 23:31 | 41.88518 | -10.76910 | 24890 ft | 438 kts | 281° |
| 2026-05-07 23:31 | 41.89337 | -10.80882 | 25115 ft | 440 kts | 281° |
| 2026-05-07 23:31 | 41.90145 | -10.84814 | 25328 ft | 441 kts | 281° |
| 2026-05-07 23:31 | 41.90958 | -10.88766 | 25585 ft | 441 kts | 281° |
| 2026-05-07 23:32 | 41.91768 | -10.92724 | 25786 ft | 442 kts | 281° |
| 2026-05-07 23:32 | 41.92581 | -10.96698 | 26004 ft | 443 kts | 281° |
| 2026-05-07 23:32 | 41.93393 | -11.00675 | 26182 ft | 444 kts | 280° |
| 2026-05-07 23:32 | 41.94206 | -11.04676 | 26377 ft | 445 kts | 281° |
| 2026-05-07 23:33 | 41.95020 | -11.08672 | 26564 ft | 446 kts | 281° |
| 2026-05-07 23:33 | 41.95831 | -11.12668 | 26744 ft | 447 kts | 280° |
| 2026-05-07 23:33 | 41.96640 | -11.16662 | 26928 ft | 447 kts | 281° |
| 2026-05-07 23:33 | 41.97459 | -11.20715 | 27059 ft | 449 kts | 280° |
| 2026-05-07 23:34 | 41.98278 | -11.24779 | 27252 ft | 450 kts | 281° |
| 2026-05-07 23:34 | 41.99094 | -11.28832 | 27430 ft | 450 kts | 280° |
| 2026-05-07 23:34 | 41.99904 | -11.32861 | 27603 ft | 451 kts | 280° |
| 2026-05-07 23:34 | 42.00723 | -11.36949 | 27768 ft | 452 kts | 280° |
| 2026-05-07 23:35 | 42.01534 | -11.41008 | 27925 ft | 452 kts | 280° |
| 2026-05-07 23:35 | 42.02349 | -11.45078 | 28101 ft | 453 kts | 280° |
| 2026-05-07 23:35 | 42.03155 | -11.49127 | 28241 ft | 453 kts | 280° |
| 2026-05-07 23:35 | 42.03970 | -11.53230 | 28390 ft | 454 kts | 280° |
| 2026-05-07 23:36 | 42.04781 | -11.57315 | 28538 ft | 455 kts | 280° |
| 2026-05-07 23:36 | 42.05592 | -11.61403 | 28681 ft | 455 kts | 280° |
| 2026-05-07 23:36 | 42.06406 | -11.65528 | 28834 ft | 456 kts | 279° |
| 2026-05-07 23:36 | 42.07209 | -11.69597 | 28978 ft | 456 kts | 279° |
| 2026-05-07 23:37 | 42.08022 | -11.73723 | 29127 ft | 456 kts | 279° |
| 2026-05-07 23:37 | 42.08830 | -11.77841 | 29262 ft | 456 kts | 279° |
| 2026-05-07 23:37 | 42.09642 | -11.81981 | 29413 ft | 456 kts | 279° |
| 2026-05-07 23:37 | 42.10444 | -11.86083 | 29550 ft | 457 kts | 279° |
| 2026-05-07 23:38 | 42.11245 | -11.90189 | 29664 ft | 457 kts | 279° |
| 2026-05-07 23:38 | 42.12048 | -11.94304 | 29794 ft | 457 kts | 279° |
| 2026-05-07 23:38 | 42.12855 | -11.98452 | 29921 ft | 456 kts | 279° |
| 2026-05-07 23:38 | 42.13650 | -12.02563 | 30042 ft | 456 kts | 279° |
| 2026-05-07 23:39 | 42.14446 | -12.06666 | 30167 ft | 456 kts | 279° |
| 2026-05-07 23:39 | 42.15244 | -12.10797 | 30299 ft | 456 kts | 279° |
| 2026-05-07 23:39 | 42.16036 | -12.14908 | 30427 ft | 455 kts | 279° |
| 2026-05-07 23:39 | 42.16826 | -12.19013 | 30557 ft | 455 kts | 279° |
| 2026-05-07 23:40 | 42.17616 | -12.23123 | 30688 ft | 455 kts | 279° |
| 2026-05-07 23:40 | 42.18408 | -12.27258 | 30816 ft | 454 kts | 279° |
| 2026-05-07 23:40 | 42.19188 | -12.31342 | 30943 ft | 454 kts | 279° |
| 2026-05-07 23:40 | 42.19981 | -12.35500 | 31074 ft | 453 kts | 279° |
| 2026-05-07 23:41 | 42.20761 | -12.39600 | 31208 ft | 452 kts | 279° |
| 2026-05-07 23:41 | 42.21534 | -12.43663 | 31323 ft | 452 kts | 279° |
| 2026-05-07 23:41 | 42.22308 | -12.47748 | 31451 ft | 451 kts | 279° |
| 2026-05-07 23:41 | 42.23087 | -12.51872 | 31589 ft | 450 kts | 279° |
| 2026-05-07 23:42 | 42.23853 | -12.55926 | 31719 ft | 449 kts | 278° |
| 2026-05-07 23:42 | 42.24623 | -12.60015 | 31849 ft | 449 kts | 279° |
| 2026-05-07 23:42 | 42.25386 | -12.64075 | 31978 ft | 448 kts | 278° |
| 2026-05-07 23:42 | 42.26148 | -12.68140 | 32113 ft | 447 kts | 278° |
| 2026-05-07 23:43 | 42.26903 | -12.72172 | 32242 ft | 446 kts | 278° |
| 2026-05-07 23:43 | 42.27655 | -12.76199 | 32372 ft | 445 kts | 278° |
| 2026-05-07 23:43 | 42.28404 | -12.80218 | 32507 ft | 444 kts | 278° |
| 2026-05-07 23:43 | 42.29153 | -12.84241 | 32635 ft | 442 kts | 278° |
| 2026-05-07 23:44 | 42.29895 | -12.88248 | 32758 ft | 441 kts | 278° |
| 2026-05-07 23:44 | 42.30635 | -12.92240 | 32893 ft | 440 kts | 278° |
| 2026-05-07 23:44 | 42.31380 | -12.96269 | 33022 ft | 439 kts | 278° |
| 2026-05-07 23:44 | 42.32115 | -13.00258 | 33153 ft | 437 kts | 278° |
| 2026-05-07 23:45 | 42.32842 | -13.04214 | 33284 ft | 436 kts | 278° |
| 2026-05-07 23:45 | 42.33564 | -13.08136 | 33416 ft | 434 kts | 277° |
| 2026-05-07 23:45 | 42.34289 | -13.12098 | 33541 ft | 433 kts | 277° |
| 2026-05-07 23:45 | 42.35006 | -13.16014 | 33669 ft | 431 kts | 277° |
| 2026-05-07 23:46 | 42.35728 | -13.19977 | 33808 ft | 429 kts | 277° |
| 2026-05-07 23:46 | 42.36438 | -13.23873 | 33926 ft | 428 kts | 277° |
| 2026-05-07 23:46 | 42.37145 | -13.27761 | 34050 ft | 426 kts | 277° |
| 2026-05-07 23:46 | 42.37841 | -13.31599 | 34182 ft | 424 kts | 277° |
| 2026-05-07 23:47 | 42.38537 | -13.35452 | 34302 ft | 422 kts | 277° |
| 2026-05-07 23:47 | 42.39230 | -13.39286 | 34432 ft | 420 kts | 277° |
| 2026-05-07 23:47 | 42.39914 | -13.43077 | 34559 ft | 417 kts | 277° |
| 2026-05-07 23:47 | 42.40599 | -13.46894 | 34661 ft | 415 kts | 277° |
| 2026-05-07 23:48 | 42.41951 | -13.54425 | 34851 ft | 411 kts | 277° |
| 2026-05-07 23:48 | 42.43301 | -13.62010 | 34884 ft | 421 kts | 277° |
| 2026-05-07 23:49 | 42.44682 | -13.69769 | 34867 ft | 432 kts | 277° |
| 2026-05-07 23:49 | 42.46094 | -13.77743 | 34871 ft | 443 kts | 277° |
| 2026-05-07 23:50 | 42.47536 | -13.85928 | 34882 ft | 453 kts | 277° |
| 2026-05-07 23:50 | 42.48998 | -13.94258 | 34898 ft | 462 kts | 277° |
| 2026-05-07 23:51 | 42.50343 | -14.02867 | 34862 ft | 466 kts | 272° |
| 2026-05-07 23:51 | 42.51269 | -14.11536 | 34870 ft | 474 kts | 272° |
| 2026-05-07 23:52 | 42.52232 | -14.20407 | 34886 ft | 478 kts | 273° |
| 2026-05-07 23:52 | 42.53198 | -14.29345 | 34852 ft | 483 kts | 273° |
| 2026-05-07 23:53 | 42.54163 | -14.38348 | 34870 ft | 486 kts | 273° |
| 2026-05-07 23:53 | 42.55123 | -14.47377 | 34874 ft | 488 kts | 273° |
| 2026-05-07 23:54 | 42.56088 | -14.56503 | 34853 ft | 490 kts | 273° |
| 2026-05-07 23:54 | 42.57038 | -14.65588 | 34879 ft | 490 kts | 272° |
| 2026-05-07 23:55 | 42.57991 | -14.74765 | 34852 ft | 491 kts | 272° |
| 2026-05-07 23:55 | 42.58935 | -14.83913 | 34844 ft | 492 kts | 272° |
| 2026-05-07 23:56 | 42.59868 | -14.93043 | 34876 ft | 491 kts | 272° |
| 2026-05-07 23:56 | 42.60802 | -15.02241 | 34844 ft | 492 kts | 272° |
| 2026-05-07 23:57 | 42.61721 | -15.11385 | 34850 ft | 492 kts | 273° |
| 2026-05-07 23:57 | 42.62638 | -15.20579 | 34866 ft | 492 kts | 273° |
| 2026-05-07 23:58 | 42.63547 | -15.29776 | 34849 ft | 493 kts | 273° |
| 2026-05-07 23:58 | 42.64449 | -15.38958 | 34860 ft | 492 kts | 273° |
| 2026-05-07 23:59 | 42.65345 | -15.48177 | 34817 ft | 493 kts | 273° |
| 2026-05-07 23:59 | 42.66228 | -15.57320 | 34926 ft | 493 kts | 274° |
| 2026-05-08 00:00 | 42.66672 | -15.61953 | 34804 ft | 494 kts | 274° |
| 2026-05-08 00:00 | 42.67107 | -15.66507 | 34868 ft | 492 kts | 273° |
| 2026-05-08 00:00 | 42.67985 | -15.75783 | 34824 ft | 496 kts | 273° |
| 2026-05-08 00:01 | 42.68854 | -15.85023 | 34877 ft | 495 kts | 273° |
| 2026-05-08 00:01 | 42.69714 | -15.94253 | 34871 ft | 494 kts | 273° |
| 2026-05-08 00:02 | 42.70564 | -16.03459 | 34827 ft | 495 kts | 273° |
| 2026-05-08 00:02 | 42.71407 | -16.12667 | 34854 ft | 495 kts | 273° |
| 2026-05-08 00:03 | 42.72248 | -16.21961 | 34865 ft | 494 kts | 273° |
| 2026-05-08 00:03 | 42.73076 | -16.31169 | 34816 ft | 495 kts | 274° |
| 2026-05-08 00:04 | 42.73486 | -16.35748 | 34848 ft | 481 kts | 274° |
| 2026-05-08 00:04 | 42.73878 | -16.40149 | 34822 ft | 461 kts | 274° |
| 2026-05-08 00:04 | 42.74255 | -16.44414 | 34817 ft | 442 kts | 273° |
| 2026-05-08 00:04 | 42.74608 | -16.48416 | 34828 ft | 424 kts | 273° |
| 2026-05-08 00:05 | 42.74952 | -16.52338 | 34798 ft | 407 kts | 273° |
| 2026-05-08 00:05 | 42.75280 | -16.56078 | 34797 ft | 389 kts | 273° |
| 2026-05-08 00:05 | 42.75588 | -16.59619 | 34796 ft | 372 kts | 273° |
| 2026-05-08 00:05 | 42.75884 | -16.63039 | 34793 ft | 355 kts | 272° |
| 2026-05-08 00:06 | 42.76164 | -16.66267 | 34780 ft | 338 kts | 272° |
| 2026-05-08 00:06 | 42.76443 | -16.69351 | 34632 ft | 328 kts | 273° |
| 2026-05-08 00:06 | 42.76863 | -16.72406 | 34070 ft | 338 kts | 280° |
| 2026-05-08 00:06 | 42.77643 | -16.75489 | 33231 ft | 355 kts | 293° |
| 2026-05-08 00:07 | 42.78993 | -16.78341 | 32586 ft | 362 kts | 311° |
| 2026-05-08 00:07 | 42.80933 | -16.80445 | 32162 ft | 359 kts | 335° |
| 2026-05-08 00:07 | 42.83305 | -16.81343 | 31613 ft | 354 kts | 4° |
| 2026-05-08 00:07 | 42.85679 | -16.80748 | 30842 ft | 347 kts | 33° |
| 2026-05-08 00:08 | 42.86982 | -16.79545 | 30365 ft | 336 kts | 54° |
| 2026-05-08 00:08 | 42.88068 | -16.77109 | 29918 ft | 313 kts | 83° |
| 2026-05-08 00:08 | 42.88084 | -16.74291 | 29563 ft | 291 kts | 113° |
| 2026-05-08 00:09 | 42.87042 | -16.72049 | 28988 ft | 286 kts | 143° |